createdAt,value
2017-11-10T00:02:04.701Z,100681.03
2017-11-10T00:04:33.865Z,100686.14
2017-11-10T00:07:03.093Z,100678.49
2017-11-10T00:09:32.327Z,100684.81
2017-11-10T00:12:01.580Z,100686.27
2017-11-10T00:14:30.785Z,100684.67
2017-11-10T00:16:59.974Z,100673.20
2017-11-10T00:19:29.197Z,100658.91
2017-11-10T00:21:59.142Z,100624.18
2017-11-10T00:24:28.446Z,100611.97
2017-11-10T00:26:57.645Z,100624.70
2017-11-10T00:29:26.858Z,100628.86
2017-11-10T00:31:56.066Z,100645.48
2017-11-10T00:34:25.276Z,100638.09
2017-11-10T00:36:54.501Z,100635.09
2017-11-10T00:39:23.692Z,100643.66
2017-11-10T00:41:52.912Z,100656.12
2017-11-10T00:44:22.862Z,100660.42
2017-11-10T00:46:52.081Z,100652.73
2017-11-10T00:49:21.300Z,100656.98
2017-11-10T00:51:51.279Z,100652.92
2017-11-10T00:54:20.505Z,100660.73
2017-11-10T00:56:49.717Z,100655.84
2017-11-10T00:59:19.904Z,100657.79
2017-11-10T01:01:49.121Z,100642.75
2017-11-10T01:04:18.356Z,100638.44
2017-11-10T01:06:47.872Z,100621.70
2017-11-10T01:09:17.100Z,100612.65
2017-11-10T01:11:46.344Z,100584.13
2017-11-10T01:14:16.321Z,100569.05
2017-11-10T01:16:45.516Z,100559.28
2017-11-10T01:19:14.729Z,100556.57
2017-11-10T01:21:46.432Z,100553.71
2017-11-10T01:24:15.686Z,100561.73
2017-11-10T01:26:45.637Z,100559.28
2017-11-10T01:29:14.864Z,100572.83
2017-11-10T01:31:44.860Z,100573.61
2017-11-10T01:34:14.065Z,100581.10
2017-11-10T01:36:43.289Z,100570.58
2017-11-10T01:39:13.268Z,100576.09
2017-11-10T01:41:42.497Z,100566.69
2017-11-10T01:44:13.466Z,100571.20
2017-11-10T01:46:43.519Z,100571.00
2017-11-10T01:49:13.512Z,100555.22
2017-11-10T01:51:42.703Z,100556.59
2017-11-10T01:54:12.662Z,100558.09
2017-11-10T01:56:41.870Z,100560.25
2017-11-10T01:59:11.096Z,100548.53
2017-11-10T02:01:40.341Z,100541.27
2017-11-10T02:04:09.582Z,100543.44
2017-11-10T02:06:40.342Z,100536.25
2017-11-10T02:09:10.344Z,100546.77
2017-11-10T02:11:40.333Z,100534.37
2017-11-10T02:14:09.566Z,100519.80
2017-11-10T02:16:39.577Z,100511.53
2017-11-10T02:19:08.777Z,100512.03
2017-11-10T02:21:38.756Z,100501.20
2017-11-10T02:24:07.967Z,100491.67
2017-11-10T02:26:38.724Z,100483.52
2017-11-10T02:29:07.908Z,100479.36
2017-11-10T02:31:37.905Z,100489.17
2017-11-10T02:34:07.103Z,100503.44
2017-11-10T02:36:36.312Z,100503.16
2017-11-10T02:39:07.025Z,100508.77
2017-11-10T02:41:36.448Z,100509.88
2017-11-10T02:44:06.686Z,100486.81
2017-11-10T02:46:35.909Z,100477.39
2017-11-10T02:49:05.129Z,100480.31
2017-11-10T02:51:34.476Z,100474.22
2017-11-10T02:54:04.502Z,100467.58
2017-11-10T02:56:34.531Z,100474.22
2017-11-10T02:59:04.512Z,100463.64
2017-11-10T03:01:35.254Z,100463.41
2017-11-10T03:04:04.494Z,100457.31
2017-11-10T03:06:33.730Z,100447.01
2017-11-10T03:09:02.953Z,100449.44
2017-11-10T03:11:32.156Z,100443.07
2017-11-10T03:14:02.144Z,100449.44
2017-11-10T03:16:32.891Z,100439.72
2017-11-10T03:19:02.117Z,100439.50
2017-11-10T03:21:31.373Z,100439.17
2017-11-10T03:24:00.739Z,100438.70
2017-11-10T03:26:30.181Z,100435.04
2017-11-10T03:29:00.914Z,100422.46
2017-11-10T03:31:30.146Z,100418.80
2017-11-10T03:34:00.112Z,100417.36
2017-11-10T03:36:29.304Z,100415.70
2017-11-10T03:38:58.515Z,100410.98
2017-11-10T03:41:27.756Z,100407.58
2017-11-10T03:43:57.007Z,100403.52
2017-11-10T03:46:26.212Z,100398.81
2017-11-10T03:48:55.420Z,100399.76
2017-11-10T03:51:24.600Z,100395.30
2017-11-10T03:53:53.806Z,100386.41
2017-11-10T03:56:23.022Z,100385.45
2017-11-10T03:58:53.116Z,100386.66
2017-11-10T04:01:22.324Z,100382.11
2017-11-10T04:03:52.383Z,100381.80
2017-11-10T04:06:21.590Z,100369.86
2017-11-10T04:08:50.801Z,100389.36
2017-11-10T04:11:20.093Z,100383.70
2017-11-10T04:13:49.298Z,100375.03
2017-11-10T04:16:18.489Z,100379.48
2017-11-10T04:18:47.694Z,100375.28
2017-11-10T04:21:16.908Z,100361.31
2017-11-10T04:23:46.125Z,100359.19
2017-11-10T04:26:15.344Z,100364.56
2017-11-10T04:28:45.349Z,100360.75
2017-11-10T04:31:14.656Z,100357.12
2017-11-10T04:33:44.627Z,100350.91
2017-11-10T04:36:13.844Z,100350.91
2017-11-10T04:38:43.077Z,100344.02
2017-11-10T04:41:13.052Z,100340.84
2017-11-10T04:43:43.228Z,100340.92
2017-11-10T04:46:12.461Z,100336.87
2017-11-10T04:48:41.683Z,100335.05
2017-11-10T04:51:10.879Z,100328.28
2017-11-10T04:53:40.881Z,100322.86
2017-11-10T04:56:10.073Z,100323.27
2017-11-10T04:58:39.300Z,100327.23
2017-11-10T05:01:09.289Z,100330.30
2017-11-10T05:03:38.529Z,100327.93
2017-11-10T05:06:07.732Z,100333.33
2017-11-10T05:08:36.953Z,100333.09
2017-11-10T05:11:06.172Z,100328.09
2017-11-10T05:13:35.364Z,100318.05
2017-11-10T05:16:04.598Z,100319.06
2017-11-10T05:18:34.580Z,100312.31
2017-11-10T05:21:03.800Z,100313.07
2017-11-10T05:23:32.993Z,100305.23
2017-11-10T05:26:02.253Z,100306.96
2017-11-10T05:28:31.462Z,100306.75
2017-11-10T05:31:00.655Z,100307.00
2017-11-10T05:33:30.038Z,100295.33
2017-11-10T05:35:59.228Z,100286.94
2017-11-10T05:38:28.538Z,100277.95
2017-11-10T05:40:57.736Z,100279.95
2017-11-10T05:43:26.952Z,100271.42
2017-11-10T05:45:56.168Z,100270.00
2017-11-10T05:48:25.380Z,100267.89
2017-11-10T05:50:54.621Z,100267.25
2017-11-10T05:53:23.934Z,100267.95
2017-11-10T05:55:53.132Z,100263.19
2017-11-10T05:58:22.326Z,100261.11
2017-11-10T06:00:51.636Z,100264.95
2017-11-10T06:03:20.809Z,100255.58
2017-11-10T06:05:50.018Z,100248.34
2017-11-10T06:08:19.293Z,100246.11
2017-11-10T06:10:48.521Z,100246.71
2017-11-10T06:13:17.708Z,100234.83
2017-11-10T06:15:47.045Z,100240.81
2017-11-10T06:18:16.244Z,100230.65
2017-11-10T06:20:45.454Z,100240.97
2017-11-10T06:23:15.441Z,100242.33
2017-11-10T06:25:44.701Z,100247.78
2017-11-10T06:28:13.908Z,100240.77
2017-11-10T06:30:43.135Z,100228.11
2017-11-10T06:33:12.381Z,100221.88
2017-11-10T06:35:42.348Z,100218.22
2017-11-10T06:38:11.606Z,100218.73
2017-11-10T06:40:41.645Z,100229.14
2017-11-10T06:43:11.577Z,100226.70
2017-11-10T06:45:40.785Z,100231.09
2017-11-10T06:48:10.016Z,100219.78
2017-11-10T06:50:40.312Z,100231.30
2017-11-10T06:53:11.024Z,100233.69
2017-11-10T06:55:41.368Z,100227.80
2017-11-10T06:58:10.576Z,100220.86
2017-11-10T07:00:39.753Z,100217.20
2017-11-10T07:03:08.977Z,100215.12
2017-11-10T07:05:38.171Z,100209.27
2017-11-10T07:08:07.403Z,100202.41
2017-11-10T07:10:36.610Z,100194.76
2017-11-10T07:13:05.816Z,100190.69
2017-11-10T07:15:35.027Z,100190.80
2017-11-10T07:18:04.212Z,100179.85
2017-11-10T07:20:33.435Z,100174.03
2017-11-10T07:23:02.647Z,100175.73
2017-11-10T07:25:31.866Z,100167.93
2017-11-10T07:28:02.018Z,100166.41
2017-11-10T07:30:31.242Z,100170.48
2017-11-10T07:33:00.429Z,100170.08
2017-11-10T07:35:29.630Z,100181.03
2017-11-10T07:37:58.848Z,100175.77
2017-11-10T07:40:28.155Z,100181.27
2017-11-10T07:42:58.268Z,100175.80
2017-11-10T07:45:27.492Z,100168.52
2017-11-10T07:47:57.480Z,100168.97
2017-11-10T07:50:26.748Z,100163.94
2017-11-10T07:52:55.965Z,100152.78
2017-11-10T07:55:25.166Z,100148.80
2017-11-10T07:57:54.393Z,100146.78
2017-11-10T08:00:24.352Z,100145.37
2017-11-10T08:02:53.564Z,100130.47
2017-11-10T08:05:22.756Z,100123.37
2017-11-10T08:07:52.044Z,100120.37
2017-11-10T08:10:21.235Z,100124.91
2017-11-10T08:12:50.472Z,100110.40
2017-11-10T08:15:19.849Z,100099.91
2017-11-10T08:17:49.045Z,100105.22
2017-11-10T08:20:18.269Z,100104.45
2017-11-10T08:22:47.480Z,100109.47
2017-11-10T08:25:16.728Z,100103.64
2017-11-10T08:27:46.663Z,100106.61
2017-11-10T08:30:15.904Z,100100.25
2017-11-10T08:32:45.881Z,100097.55
2017-11-10T08:35:15.097Z,100094.36
2017-11-10T08:37:45.075Z,100094.90
2017-11-10T08:40:14.295Z,100098.09
2017-11-10T08:42:43.502Z,100106.91
2017-11-10T08:45:12.713Z,100093.63
2017-11-10T08:47:41.935Z,100091.95
2017-11-10T08:50:11.225Z,100092.27
2017-11-10T08:52:41.182Z,100090.03
2017-11-10T08:55:10.513Z,100089.85
2017-11-10T08:57:41.223Z,100090.41
2017-11-10T09:00:10.443Z,100083.66
2017-11-10T09:02:39.653Z,100083.47
2017-11-10T09:05:08.856Z,100072.17
2017-11-10T09:07:38.321Z,100070.19
2017-11-10T09:10:07.505Z,100067.61
2017-11-10T09:12:36.699Z,100072.02
2017-11-10T09:15:05.913Z,100069.38
2017-11-10T09:17:35.137Z,100066.51
2017-11-10T09:20:04.374Z,100067.39
2017-11-10T09:22:33.636Z,100056.38
2017-11-10T09:25:02.908Z,100054.05
2017-11-10T09:27:32.118Z,100052.16
2017-11-10T09:30:06.873Z,100059.56
2017-11-10T09:32:42.483Z,100054.25
2017-11-10T09:35:17.114Z,100036.14
2017-11-10T09:37:51.737Z,100028.95
2017-11-10T09:40:39.536Z,100029.85
2017-11-10T09:43:19.361Z,100025.78
2017-11-10T09:45:49.323Z,100028.17
2017-11-10T09:48:23.917Z,100026.33
2017-11-10T09:50:58.662Z,100035.82
2017-11-10T09:53:44.496Z,100036.87
2017-11-10T10:10:01.017Z,100011.50
2017-11-10T10:12:30.242Z,100002.66
2017-11-10T10:28:22.138Z,99965.73
2017-11-10T10:30:52.221Z,99963.11
2017-11-10T10:33:22.325Z,99955.70
2017-11-10T10:35:51.622Z,99955.66
2017-11-10T10:38:20.825Z,99955.37
2017-11-10T10:40:50.046Z,99939.87
2017-11-10T10:43:19.324Z,99934.58
2017-11-10T10:45:49.472Z,99942.42
2017-11-10T10:48:18.722Z,99940.23
2017-11-10T10:50:47.955Z,99930.17
2017-11-10T10:53:17.929Z,99917.82
2017-11-10T10:55:51.441Z,99917.95
2017-11-10T10:58:22.540Z,99927.22
2017-11-10T11:00:51.781Z,99909.30
2017-11-10T11:03:20.976Z,99908.50
2017-11-10T11:05:50.178Z,99918.98
2017-11-10T11:08:19.388Z,99903.09
2017-11-10T11:10:49.365Z,99906.09
2017-11-10T11:13:18.585Z,99895.84
2017-11-10T11:15:47.789Z,99893.69
2017-11-10T11:18:17.013Z,99878.27
2017-11-10T11:20:46.225Z,99866.67
2017-11-10T11:23:15.509Z,99867.07
2017-11-10T11:25:45.473Z,99856.16
2017-11-10T11:28:14.729Z,99848.13
2017-11-10T11:30:44.700Z,99846.87
2017-11-10T11:33:15.429Z,99837.59
2017-11-10T11:35:44.668Z,99840.18
2017-11-10T11:38:14.628Z,99839.84
2017-11-10T11:40:43.889Z,99830.22
2017-11-10T11:43:13.093Z,99821.62
2017-11-10T11:45:42.320Z,99818.45
2017-11-10T11:48:11.608Z,99814.27
2017-11-10T11:50:41.168Z,99797.45
2017-11-10T11:53:10.352Z,99802.13
2017-11-10T11:55:41.137Z,99801.30
2017-11-10T11:58:10.340Z,99798.97
2017-11-10T12:00:39.528Z,99800.40
2017-11-10T12:03:08.770Z,99789.09
2017-11-10T12:05:37.986Z,99785.47
2017-11-10T12:08:08.229Z,99789.45
2017-11-10T12:10:37.427Z,99775.36
2017-11-10T12:13:06.683Z,99761.47
2017-11-10T12:15:35.881Z,99757.27
2017-11-10T12:18:05.092Z,99747.77
2017-11-10T12:20:34.308Z,99748.65
2017-11-10T12:23:04.380Z,99749.61
2017-11-10T12:25:33.608Z,99741.75
2017-11-10T12:28:03.612Z,99734.91
2017-11-10T12:30:32.815Z,99726.19
2017-11-10T12:33:02.174Z,99726.14
2017-11-10T12:35:31.414Z,99718.39
2017-11-10T12:38:00.653Z,99719.03
2017-11-10T12:40:29.926Z,99722.62
2017-11-10T12:42:59.876Z,99721.18
2017-11-10T12:45:29.112Z,99713.56
2017-11-10T12:47:58.314Z,99717.74
2017-11-10T12:50:27.552Z,99721.42
2017-11-10T12:52:56.920Z,99712.25
2017-11-10T12:55:26.988Z,99723.34
2017-11-10T12:57:57.003Z,99725.51
2017-11-10T13:00:26.997Z,99718.33
2017-11-10T13:02:57.037Z,99722.80
2017-11-10T13:05:27.065Z,99725.28
2017-11-10T13:07:56.236Z,99718.09
2017-11-10T13:10:25.449Z,99719.10
2017-11-10T13:12:54.709Z,99730.11
2017-11-10T13:15:24.715Z,99722.59
2017-11-10T13:17:54.040Z,99727.68
2017-11-10T13:20:24.084Z,99727.91
2017-11-10T13:22:53.298Z,99729.16
2017-11-10T13:25:22.604Z,99720.42
2017-11-10T13:27:53.433Z,99726.06
2017-11-10T13:30:22.657Z,99728.42
2017-11-10T13:32:52.036Z,99726.83
2017-11-10T13:35:21.386Z,99715.58
2017-11-10T13:37:51.381Z,99716.53
2017-11-10T13:40:20.594Z,99719.95
2017-11-10T13:42:50.618Z,99716.42
2017-11-10T13:45:21.007Z,99716.82
2017-11-10T13:47:50.220Z,99725.98
2017-11-10T13:50:19.443Z,99718.44
2017-11-10T13:52:48.688Z,99715.98
2017-11-10T13:55:17.916Z,99717.05
2017-11-10T13:57:47.900Z,99721.30
2017-11-10T14:00:17.132Z,99711.87
2017-11-10T14:02:47.251Z,99717.42
2017-11-10T14:05:17.252Z,99712.36
2017-11-10T14:07:46.461Z,99712.02
2017-11-10T14:10:16.472Z,99703.19
2017-11-10T14:12:46.482Z,99706.10
2017-11-10T14:15:15.709Z,99701.06
2017-11-10T14:17:45.037Z,99713.15
2017-11-10T14:20:14.442Z,99705.23
2017-11-10T14:22:43.673Z,99714.98
2017-11-10T14:25:12.901Z,99724.69
2017-11-10T14:27:42.305Z,99734.98
2017-11-10T14:30:12.349Z,99738.58
2017-11-10T14:32:41.733Z,99744.08
2017-11-10T14:35:10.967Z,99778.08
2017-11-10T14:37:40.201Z,99788.08
2017-11-10T14:40:09.408Z,99785.09
2017-11-10T14:42:38.618Z,99784.73
2017-11-10T14:45:09.049Z,99788.39
2017-11-10T14:47:38.252Z,99795.11
2017-11-10T14:50:07.468Z,99784.36
2017-11-10T14:52:36.725Z,99785.83
2017-11-10T14:55:06.073Z,99798.75
2017-11-10T14:57:35.364Z,99797.06
2017-11-10T15:00:04.685Z,99807.45
2017-11-10T15:02:33.966Z,99797.63
2017-11-10T15:05:03.206Z,99809.73
2017-11-10T15:07:32.416Z,99813.00
2017-11-10T15:10:02.431Z,99804.08
2017-11-10T15:12:31.845Z,99806.55
2017-11-10T15:15:01.842Z,99812.77
2017-11-10T15:17:31.048Z,99857.03
2017-11-10T15:20:00.301Z,99890.78
2017-11-10T15:22:29.509Z,99854.91
2017-11-10T15:24:58.786Z,99857.92
2017-11-10T15:27:28.169Z,99851.30
2017-11-10T15:29:57.365Z,99853.50
2017-11-10T15:32:27.362Z,99857.81
2017-11-10T15:34:56.607Z,99856.06
2017-11-10T15:37:25.847Z,99863.94
2017-11-10T15:39:55.045Z,99868.45
2017-11-10T15:42:24.351Z,99870.38
2017-11-10T15:44:53.546Z,99874.67
2017-11-10T15:47:23.565Z,99879.08
2017-11-10T15:49:52.764Z,99880.57
2017-11-10T15:52:22.812Z,99880.02
2017-11-10T15:54:52.015Z,99885.95
2017-11-10T15:57:21.223Z,99888.23
2017-11-10T15:59:50.440Z,99898.00
2017-11-10T16:02:19.654Z,99900.70
2017-11-10T16:04:50.375Z,99900.49
2017-11-10T16:07:19.623Z,99911.47
2017-11-10T16:09:48.849Z,99911.82
2017-11-10T16:12:18.097Z,99912.64
2017-11-10T16:14:48.299Z,99918.48
2017-11-10T16:17:17.505Z,99920.14
2017-11-10T16:19:47.507Z,99918.31
2017-11-10T16:22:16.720Z,99922.14
2017-11-10T16:24:46.000Z,99924.47
2017-11-10T16:27:15.209Z,99935.80
2017-11-10T16:29:44.445Z,99941.37
2017-11-10T16:32:13.665Z,99942.80
2017-11-10T16:34:42.856Z,99939.37
2017-11-10T16:37:12.048Z,99951.56
2017-11-10T16:39:41.351Z,99956.45
2017-11-10T16:42:10.583Z,99953.50
2017-11-10T16:44:39.786Z,99961.36
2017-11-10T16:47:08.978Z,99967.66
2017-11-10T16:49:38.225Z,99971.05
2017-11-10T16:52:07.377Z,99972.11
2017-11-10T16:54:36.660Z,99975.42
2017-11-10T16:57:05.870Z,99982.75
2017-11-10T16:59:35.087Z,99987.93
2017-11-10T17:02:04.318Z,99991.98
2017-11-10T17:04:33.524Z,99994.83
2017-11-10T17:07:02.754Z,99997.48
2017-11-10T17:09:31.978Z,100001.59
2017-11-10T17:12:01.196Z,100001.64
2017-11-10T17:14:31.185Z,100010.80
2017-11-10T17:17:00.600Z,100006.89
2017-11-10T17:19:30.662Z,100018.83
2017-11-10T17:22:00.004Z,100022.27
2017-11-10T17:24:29.219Z,100015.50
2017-11-10T17:26:59.193Z,100020.19
2017-11-10T17:29:29.418Z,100031.14
2017-11-10T17:31:58.685Z,100026.28
2017-11-10T17:34:28.058Z,100030.02
2017-11-10T17:36:58.038Z,100033.77
2017-11-10T17:39:27.410Z,100035.31
2017-11-10T17:41:56.674Z,100035.15
2017-11-10T17:44:26.720Z,100038.58
2017-11-10T17:46:56.689Z,100038.58
2017-11-10T17:49:25.898Z,100041.59
2017-11-10T17:51:55.912Z,100036.46
2017-11-10T17:54:25.879Z,100032.67
2017-11-10T17:56:55.161Z,100035.98
2017-11-10T17:59:24.365Z,100035.11
2017-11-10T18:01:53.604Z,100030.72
2017-11-10T18:04:23.618Z,100034.19
2017-11-10T18:06:53.074Z,100039.03
2017-11-10T18:09:23.052Z,100039.58
2017-11-10T18:11:53.038Z,100044.75
2017-11-10T18:14:22.318Z,100044.39
2017-11-10T18:16:51.534Z,100049.82
2017-11-10T18:19:20.809Z,100048.71
2017-11-10T18:21:50.028Z,100057.84
2017-11-10T18:24:19.304Z,100053.86
2017-11-10T18:26:48.545Z,100057.89
2017-11-10T18:29:17.741Z,100060.24
2017-11-10T18:31:48.484Z,100059.29
2017-11-10T18:34:17.756Z,100062.95
2017-11-10T18:36:47.061Z,100060.28
2017-11-10T18:39:16.372Z,100066.06
2017-11-10T18:41:45.607Z,100062.98
2017-11-10T18:44:15.571Z,100069.27
2017-11-10T18:46:44.755Z,100061.88
2017-11-10T18:49:19.437Z,100067.55
2017-11-10T18:51:48.645Z,100065.48
2017-11-10T18:54:18.682Z,100068.67
2017-11-10T18:56:48.137Z,100069.35
2017-11-10T18:59:17.378Z,100076.92
2017-11-10T19:01:47.325Z,100068.26
2017-11-10T19:04:16.808Z,100074.48
2017-11-10T19:06:46.042Z,100071.11
2017-11-10T19:09:15.231Z,100075.85
2017-11-10T19:11:44.465Z,100067.55
2017-11-10T19:14:15.033Z,100069.45
2017-11-10T19:16:44.310Z,100075.42
2017-11-10T19:19:13.576Z,100084.52
2017-11-10T19:21:43.550Z,100081.38
2017-11-10T19:37:17.888Z,100080.13
2017-11-10T19:39:47.914Z,100084.58
2017-11-10T19:42:18.255Z,100076.81
2017-11-10T19:44:48.253Z,100081.88
2017-11-10T19:47:18.207Z,100076.57
2017-11-10T19:49:47.503Z,100074.52
2017-11-10T19:52:17.314Z,100087.22
2017-11-10T19:54:47.529Z,100085.20
2017-11-10T19:57:16.883Z,100088.30
2017-11-10T19:59:47.172Z,100088.17
2017-11-10T20:02:19.289Z,100091.24
2017-11-10T20:04:49.616Z,100087.09
2017-11-10T20:07:20.408Z,100080.07
2017-11-10T20:09:49.673Z,100080.53
2017-11-10T20:12:18.984Z,100078.17
2017-11-10T20:14:48.841Z,100080.87
2017-11-10T20:17:19.126Z,100085.38
2017-11-10T20:19:48.313Z,100084.13
2017-11-10T20:22:17.553Z,100092.63
2017-11-10T20:24:46.783Z,100082.22
2017-11-10T20:27:17.565Z,100081.70
2017-11-10T20:29:46.815Z,100087.43
2017-11-10T20:42:06.132Z,100086.91
2017-11-10T20:44:35.357Z,100079.56
2017-11-10T20:47:05.456Z,100086.25
2017-11-10T20:49:35.524Z,100080.45
2017-11-10T20:52:04.802Z,100081.23
2017-11-10T20:54:34.024Z,100078.69
2017-11-10T21:10:08.394Z,100079.40
2017-11-10T21:12:37.890Z,100085.75
2017-11-10T21:15:07.132Z,100094.80
2017-11-10T21:17:36.438Z,100097.20
2017-11-10T21:20:05.672Z,100106.02
2017-11-10T21:22:35.740Z,100106.78
2017-11-10T21:25:05.042Z,100090.63
2017-11-10T21:27:34.624Z,100091.00
2017-11-10T21:30:03.823Z,100085.78
2017-11-10T21:32:33.122Z,100080.47
2017-11-10T21:35:02.409Z,100074.58
2017-11-10T21:37:33.553Z,100066.41
2017-11-10T21:40:03.531Z,100071.23
2017-11-10T21:42:32.850Z,100075.46
2017-11-10T21:45:02.880Z,100079.02
2017-11-10T21:47:33.106Z,100075.06
2017-11-10T21:50:03.392Z,100072.17
2017-11-10T21:52:32.777Z,100073.61
2017-11-10T21:55:02.064Z,100078.52
2017-11-10T21:57:31.350Z,100079.92
2017-11-10T22:00:01.121Z,100069.00
2017-11-10T22:02:30.713Z,100067.00
2017-11-10T22:05:00.816Z,100073.75
2017-11-10T22:07:30.106Z,100066.76
2017-11-10T22:09:59.423Z,100069.20
2017-11-10T22:12:28.628Z,100066.05
2017-11-10T22:14:58.661Z,100067.24
2017-11-10T22:17:27.887Z,100058.09
2017-11-10T22:19:57.080Z,100055.94
2017-11-10T22:22:26.318Z,100062.28
2017-11-10T22:24:55.524Z,100063.81
2017-11-10T22:27:24.821Z,100065.56
2017-11-10T22:29:54.022Z,100059.44
2017-11-10T22:32:23.253Z,100066.52
2017-11-10T22:34:52.525Z,100062.78
2017-11-10T22:37:21.769Z,100059.53
2017-11-10T22:39:50.976Z,100065.05
2017-11-10T22:42:20.182Z,100056.89
2017-11-10T22:44:49.476Z,100059.59
2017-11-10T22:47:18.688Z,100049.69
2017-11-10T22:49:48.055Z,100053.31
2017-11-10T22:52:17.265Z,100042.61
2017-11-10T22:54:46.483Z,100047.00
2017-11-10T22:57:15.667Z,100055.25
2017-11-10T22:59:44.898Z,100053.02
2017-11-10T23:02:14.169Z,100041.36
2017-11-10T23:04:43.391Z,100048.75
2017-11-10T23:07:12.617Z,100046.91
2017-11-10T23:09:42.636Z,100053.20
2017-11-10T23:12:12.661Z,100060.75
2017-11-10T23:14:42.948Z,100056.06
2017-11-10T23:17:12.205Z,100062.26
2017-11-10T23:19:41.426Z,100057.87
2017-11-10T23:22:10.640Z,100059.69
2017-11-10T23:24:41.364Z,100058.52
2017-11-10T23:27:10.604Z,100055.58
2017-11-10T23:29:39.855Z,100058.86
2017-11-10T23:32:09.059Z,100042.56
2017-11-10T23:34:38.330Z,100048.22
2017-11-10T23:37:07.619Z,100053.34
2017-11-10T23:39:37.736Z,100055.52
2017-11-10T23:42:07.088Z,100050.42
2017-11-10T23:44:36.345Z,100047.39
2017-11-10T23:47:05.562Z,100043.52
2017-11-10T23:49:34.986Z,100040.64
2017-11-10T23:52:04.997Z,100035.58
2017-11-10T23:54:34.252Z,100032.08
2017-11-10T23:57:03.477Z,100031.03
2017-11-10T23:59:32.674Z,100031.44
